Time;durP1;ratioP1;P1;durP2;ratioP2;P2;SDS_P1;SDS_P2;PMS_P1;PMS_P2;Temp;Humidity;BMP_temperature;BMP_pressure;BME280_temperature;BME280_humidity;BME280_pressure;Samples;Min_cycle;Max_cycle;Signal;HPM_P1;HPM_P2
2023/04/01 00:01:18;;;;;;;2.45;1.27;;;;;;;12.69;59.89;98351.69;4337148;32;20103;-84
2023/04/01 00:03:44;;;;;;;1.55;1.08;;;;;;;12.55;59.87;98349.97;4349502;32;20130;-85
2023/04/01 00:06:11;;;;;;;3.75;1.30;;;;;;;12.55;59.87;98360.41;4337750;32;20110;-85
2023/04/01 00:08:37;;;;;;;2.22;1.20;;;;;;;12.50;59.88;98366.81;4339154;32;20536;-83
2023/04/01 00:11:02;;;;;;;2.60;1.40;;;;;;;12.53;59.88;98364.84;4350744;32;20137;-84
2023/04/01 00:13:28;;;;;;;2.95;1.27;;;;;;;12.33;59.86;98365.28;4351101;32;20151;-86
2023/04/01 00:15:55;;;;;;;4.25;1.45;;;;;;;12.33;59.86;98354.84;4338877;32;20143;-86
2023/04/01 00:18:21;;;;;;;6.45;1.52;;;;;;;12.37;59.87;98360.69;4338905;32;20606;-86
2023/04/01 00:20:47;;;;;;;2.92;1.55;;;;;;;12.46;59.87;98365.34;4326856;32;20892;-86
2023/04/01 00:23:13;;;;;;;2.65;1.62;;;;;;;12.31;59.86;98364.53;4350654;32;20138;-85
2023/04/01 00:25:39;;;;;;;2.58;1.45;;;;;;;12.30;59.87;98365.44;4350993;32;20143;-84
2023/04/01 00:28:04;;;;;;;4.15;1.45;;;;;;;12.18;59.86;98368.81;4337983;32;20151;-86
2023/04/01 00:30:29;;;;;;;3.42;2.37;;;;;;;12.08;59.85;98359.88;4337916;32;20459;-85
2023/04/01 00:32:55;;;;;;;3.80;2.20;;;;;;;12.25;59.86;98357.88;4349782;32;20453;-85
2023/04/01 00:35:21;;;;;;;3.47;1.92;;;;;;;12.24;59.86;98355.37;4350225;32;20129;-86
2023/04/01 00:37:47;;;;;;;6.65;2.10;;;;;;;12.29;59.86;98355.94;4338246;32;20134;-85
2023/04/01 00:40:39;;;;;;;5.05;2.60;;;;;;;12.27;59.86;98352.56;4338073;32;20090;-86
2023/04/01 00:43:18;;;;;;;7.85;2.60;;;;;;;12.20;59.85;98351.28;4348574;32;20090;-85
2023/04/01 00:45:44;;;;;;;3.65;2.40;;;;;;;12.23;59.86;98353.69;4339940;32;20129;-85
2023/04/01 00:48:22;;;;;;;5.72;2.67;;;;;;;12.20;59.86;98352.13;4340954;32;20502;-86
2023/04/01 00:50:54;;;;;;;5.25;2.87;;;;;;;12.16;59.86;98349.78;4342160;32;20117;-85
2023/04/01 00:53:19;;;;;;;8.60;3.00;;;;;;;11.99;59.85;98354.25;4349879;32;20127;-83
2023/04/01 00:55:56;;;;;;;4.37;2.60;;;;;;;12.14;59.86;98352.50;4352412;32;20111;-83
2023/04/01 00:58:21;;;;;;;5.18;2.67;;;;;;;12.09;59.85;98351.09;4339288;32;20583;-84
2023/04/01 01:00:47;;;;;;;4.40;2.87;;;;;;;12.23;59.86;98353.69;4338112;32;20182;-84
2023/04/01 01:03:12;;;;;;;4.37;2.83;;;;;;;12.24;59.86;98347.56;4337306;32;20714;-85
2023/04/01 01:05:53;;;;;;;4.20;2.75;;;;;;;12.32;59.86;98344.50;4363801;32;20143;-85
2023/04/01 01:08:30;;;;;;;5.25;3.00;;;;;;;12.30;59.87;98349.78;4338511;32;20133;-85
2023/04/01 01:10:55;;;;;;;5.28;3.00;;;;;;;12.41;59.87;98352.59;4338324;32;20214;-85
2023/04/01 01:13:26;;;;;;;5.25;3.12;;;;;;;12.22;59.86;98352.88;4337659;32;20127;-84
2023/04/01 01:16:00;;;;;;;4.15;3.05;;;;;;;12.15;59.86;98354.19;4349954;32;20178;-85
2023/04/01 01:18:44;;;;;;;9.18;3.40;;;;;;;12.10;59.85;98348.41;4349951;32;20115;-86
2023/04/01 01:21:33;;;;;;;5.65;3.60;;;;;;;11.90;59.83;98346.16;4344980;32;172468;-86
2023/04/01 01:24:42;;;;;;;6.80;3.25;;;;;;;11.97;59.84;98331.81;4350705;32;20113;-86
2023/04/01 01:27:11;;;;;;;5.20;3.15;;;;;;;11.95;59.84;98339.72;4316422;32;20166;-84
2023/04/01 01:30:01;;;;;;;5.55;3.75;;;;;;;12.03;59.85;98341.84;4338470;32;20133;-85
2023/04/01 01:32:42;;;;;;;;;;;;;;;11.93;59.84;98338.97;4364633;32;20369;-86
2023/04/01 01:35:33;;;;;;;7.10;2.75;;;;;;;12.10;59.85;98339.75;4364497;32;19993;-85
2023/04/01 01:38:00;;;;;;;5.30;3.05;;;;;;;12.08;59.85;98333.78;4326799;32;20179;-85
2023/04/01 01:40:26;;;;;;;5.20;3.15;;;;;;;11.98;59.84;98343.91;4328157;32;20134;-85
2023/04/01 01:42:53;;;;;;;8.45;3.20;;;;;;;11.97;59.84;98343.06;4338370;32;20425;-85
2023/04/01 01:45:19;;;;;;;6.53;2.80;;;;;;;11.89;59.83;98336.66;4338638;32;20393;-85
2023/04/01 01:47:45;;;;;;;5.75;3.10;;;;;;;11.92;59.84;98339.91;4338421;32;20098;-86
2023/04/01 01:50:11;;;;;;;4.15;2.28;;;;;;;11.86;59.84;98339.44;4338378;32;20145;-85
2023/04/01 01:52:36;;;;;;;5.68;2.83;;;;;;;11.71;59.83;98342.91;4338343;32;20372;-86
2023/04/01 01:55:02;;;;;;;4.87;2.30;;;;;;;11.67;59.82;98347.47;4338215;32;20155;-85
2023/04/01 01:57:36;;;;;;;4.78;2.40;;;;;;;11.79;59.83;98344.16;4337714;32;20457;-83
2023/04/01 02:00:12;;;;;;;5.45;2.25;;;;;;;11.56;59.82;98342.03;4338782;32;20115;-84
2023/04/01 02:02:40;;;;;;;6.87;2.53;;;;;;;11.68;59.83;98334.34;4339770;32;20094;-83
2023/04/01 02:05:05;;;;;;;3.28;2.00;;;;;;;11.79;59.83;98338.13;4338260;32;20166;-83
2023/04/01 02:07:32;;;;;;;6.93;3.03;;;;;;;11.64;59.83;98339.84;4338180;32;20141;-85
2023/04/01 02:09:57;;;;;;;5.05;2.37;;;;;;;11.53;59.83;98335.25;4338041;32;20158;-84
2023/04/01 02:12:22;;;;;;;5.10;2.25;;;;;;;11.53;59.82;98332.63;4349789;32;23515;-86
2023/04/01 02:14:57;;;;;;;5.68;2.72;;;;;;;11.65;59.82;98336.31;4337945;32;20132;-85
2023/04/01 02:17:26;;;;;;;4.85;2.15;;;;;;;11.58;59.82;98330.59;4326113;32;20154;-86
2023/04/01 02:19:57;;;;;;;6.85;2.83;;;;;;;11.51;59.81;98326.69;4342417;32;20130;-85
2023/04/01 02:22:28;;;;;;;5.90;2.62;;;;;;;11.56;59.82;98321.19;4337919;32;20239;-85
2023/04/01 02:24:56;;;;;;;5.10;2.70;;;;;;;11.51;59.81;98318.84;4338083;32;20135;-86
2023/04/01 02:27:21;;;;;;;4.82;2.33;;;;;;;11.51;59.82;98316.25;4338136;32;20118;-86
2023/04/01 02:29:47;;;;;;;4.07;2.90;;;;;;;11.44;59.81;98317.56;4337713;32;20147;-86
2023/04/01 02:32:12;;;;;;;5.18;2.70;;;;;;;11.38;59.82;98316.16;4337989;32;20107;-86
2023/04/01 02:34:37;;;;;;;5.03;2.40;;;;;;;11.44;59.81;98312.34;4325605;32;20111;-84
2023/04/01 02:37:03;;;;;;;3.70;2.37;;;;;;;11.33;59.81;98310.34;4325435;32;20150;-84
2023/04/01 02:39:28;;;;;;;5.60;2.95;;;;;;;11.20;59.80;98305.94;4339421;32;20105;-84
2023/04/01 02:41:54;;;;;;;4.47;2.75;;;;;;;11.30;59.81;98310.53;4337694;32;20190;-85
2023/04/01 02:44:19;;;;;;;4.57;2.35;;;;;;;11.28;59.80;98314.16;4325420;32;20215;-85
2023/04/01 02:46:45;;;;;;;5.32;2.60;;;;;;;11.29;59.80;98311.44;4337760;32;20135;-85
2023/04/01 02:49:10;;;;;;;3.22;2.58;;;;;;;11.43;59.81;98309.81;4337566;32;20206;-85
2023/04/01 02:51:35;;;;;;;3.83;2.42;;;;;;;11.28;59.80;98312.38;4349811;32;20138;-85
2023/04/01 02:54:01;;;;;;;7.25;3.42;;;;;;;11.36;59.80;98310.19;4349493;32;21126;-85
2023/04/01 02:56:26;;;;;;;6.95;2.87;;;;;;;11.43;59.81;98315.03;4337232;32;21632;-85
2023/04/01 02:58:53;;;;;;;4.22;3.03;;;;;;;11.38;59.81;98315.31;4337805;32;20103;-85
2023/04/01 03:01:18;;;;;;;6.20;2.95;;;;;;;11.48;59.81;98313.84;4338010;32;20144;-86
2023/04/01 03:03:43;;;;;;;5.93;3.40;;;;;;;11.27;59.80;98309.87;4337935;32;20411;-85
2023/04/01 03:06:10;;;;;;;7.62;3.37;;;;;;;11.49;59.81;98325.94;4337769;32;21783;-85
2023/04/01 03:08:36;;;;;;;6.07;3.22;;;;;;;11.24;59.80;98320.47;4339558;32;20111;-85
2023/04/01 03:11:01;;;;;;;6.97;3.30;;;;;;;11.21;59.80;98310.22;4339456;32;24480;-85
2023/04/01 03:13:27;;;;;;;6.75;3.05;;;;;;;11.13;59.79;98302.88;4338671;32;20123;-85
2023/04/01 03:15:53;;;;;;;4.90;3.12;;;;;;;11.14;59.79;98312.34;4363217;32;20512;-85
2023/04/01 03:18:18;;;;;;;5.28;3.12;;;;;;;11.11;59.79;98314.25;4338057;32;20172;-84
2023/04/01 03:20:43;;;;;;;5.07;2.58;;;;;;;11.20;59.80;98321.56;4337583;32;20121;-85
2023/04/01 03:23:09;;;;;;;6.30;3.15;;;;;;;11.12;59.79;98327.22;4337431;32;20484;-85
2023/04/01 03:25:35;;;;;;;3.95;2.65;;;;;;;10.84;59.79;98324.47;4349484;32;20114;-84
2023/04/01 03:28:00;;;;;;;3.78;2.20;;;;;;;11.04;59.78;98319.00;4337682;32;20459;-85
2023/04/01 03:30:26;;;;;;;4.12;2.47;;;;;;;10.90;59.78;98327.59;4337527;32;20095;-84
2023/04/01 03:32:52;;;;;;;4.80;2.20;;;;;;;10.84;59.77;98327.06;4337708;32;20471;-84
2023/04/01 03:35:17;;;;;;;4.60;2.12;;;;;;;10.87;59.78;98326.91;4351507;32;20145;-84
2023/04/01 03:37:43;;;;;;;4.80;2.35;;;;;;;10.89;59.78;98325.91;4349649;32;20127;-84
2023/04/01 03:40:09;;;;;;;4.57;2.33;;;;;;;10.61;59.76;98337.00;4324438;32;21616;-84
2023/04/01 03:42:34;;;;;;;3.50;2.08;;;;;;;10.75;59.77;98334.47;4323937;32;20142;-84
2023/04/01 03:45:00;;;;;;;2.10;1.37;;;;;;;10.60;59.76;98344.88;4349190;32;20174;-85
2023/04/01 03:47:25;;;;;;;3.87;1.50;;;;;;;10.62;59.76;98341.25;4349535;32;20127;-84
2023/04/01 03:49:51;;;;;;;4.15;1.77;;;;;;;10.66;59.77;98341.97;4349133;32;20413;-86
2023/04/01 03:52:16;;;;;;;3.10;1.60;;;;;;;10.60;59.76;98345.72;4348483;32;20147;-86
2023/04/01 03:54:42;;;;;;;2.22;1.20;;;;;;;10.47;59.76;98342.13;4349556;32;20226;-85
2023/04/01 03:57:07;;;;;;;2.53;1.33;;;;;;;10.56;59.77;98349.41;4349111;32;20150;-85
2023/04/01 03:59:32;;;;;;;2.97;1.58;;;;;;;10.47;59.76;98346.47;4336709;32;20103;-85
2023/04/01 04:01:58;;;;;;;2.58;1.35;;;;;;;10.63;59.77;98355.13;4336628;32;20099;-85
2023/04/01 04:04:23;;;;;;;3.78;1.23;;;;;;;10.53;59.76;98354.78;4336664;32;20328;-85
2023/04/01 04:06:49;;;;;;;2.35;1.37;;;;;;;10.35;59.75;98355.75;4349106;32;20397;-85
2023/04/01 04:09:14;;;;;;;4.00;1.40;;;;;;;10.25;59.76;98360.63;4362939;32;20158;-85
2023/04/01 04:11:40;;;;;;;2.97;1.48;;;;;;;10.27;59.75;98350.97;4337188;32;20117;-85
2023/04/01 04:14:05;;;;;;;3.10;1.50;;;;;;;10.08;59.73;98355.44;4350458;32;20107;-85
2023/04/01 04:16:30;;;;;;;3.58;1.83;;;;;;;9.90;59.73;98354.63;4348955;32;20163;-85
2023/04/01 04:18:56;;;;;;;2.55;1.48;;;;;;;9.95;59.73;98347.44;4336791;32;20142;-85
2023/04/01 04:21:21;;;;;;;5.87;1.30;;;;;;;10.00;59.73;98349.81;4362271;32;20421;-85
2023/04/01 04:23:47;;;;;;;2.75;1.30;;;;;;;9.73;59.72;98363.28;4336147;32;21406;-85
2023/04/01 04:26:13;;;;;;;2.25;1.52;;;;;;;9.78;59.72;98363.91;4336403;32;20181;-85
2023/04/01 04:28:38;;;;;;;1.70;1.60;;;;;;;9.77;59.72;98359.63;4324337;32;20161;-84
2023/04/01 04:31:07;;;;;;;2.47;1.20;;;;;;;9.87;59.73;98362.56;4336330;32;20393;-85
2023/04/01 04:33:34;;;;;;;2.70;1.23;;;;;;;9.85;59.72;98356.63;4339422;32;20151;-85
2023/04/01 04:36:01;;;;;;;1.90;1.10;;;;;;;9.76;59.72;98352.75;4336440;32;20522;-85
2023/04/01 04:38:27;;;;;;;2.08;1.23;;;;;;;9.82;59.72;98351.56;4336686;32;20117;-85
2023/04/01 04:40:52;;;;;;;2.00;0.88;;;;;;;9.74;59.72;98351.97;4324258;32;20100;-84
2023/04/01 04:43:18;;;;;;;2.75;1.58;;;;;;;9.65;59.72;98349.81;4348767;32;20161;-85
2023/04/01 04:45:43;;;;;;;3.25;1.02;;;;;;;9.58;59.71;98351.06;4336347;32;20107;-85
2023/04/01 04:48:10;;;;;;;2.17;1.00;;;;;;;9.72;59.72;98353.81;4324029;32;20457;-85
2023/04/01 04:50:35;;;;;;;2.92;1.12;;;;;;;9.71;59.71;98359.09;4324074;32;20473;-84
2023/04/01 04:53:01;;;;;;;2.78;0.90;;;;;;;9.65;59.72;98343.78;4338894;32;20171;-85
2023/04/01 04:55:26;;;;;;;1.77;1.12;;;;;;;9.72;59.71;98350.38;4338471;32;20146;-84
2023/04/01 04:57:52;;;;;;;1.62;0.90;;;;;;;9.88;59.73;98346.06;4338329;32;20118;-85
2023/04/01 05:00:17;;;;;;;1.80;1.00;;;;;;;9.86;59.72;98355.69;4350712;32;20095;-86
2023/04/01 05:02:43;;;;;;;1.80;1.27;;;;;;;9.75;59.72;98351.06;4350652;32;20468;-86
2023/04/01 05:05:08;;;;;;;1.80;1.23;;;;;;;9.84;59.72;98349.75;4338043;32;20147;-86
2023/04/01 05:07:34;;;;;;;2.22;1.33;;;;;;;9.80;59.73;98353.41;4350416;32;20102;-86
2023/04/01 05:09:59;;;;;;;2.10;1.00;;;;;;;9.89;59.73;98346.91;4338236;32;20199;-86
2023/04/01 05:12:25;;;;;;;9.45;1.83;;;;;;;10.12;59.74;98354.34;4338349;32;20158;-85
2023/04/01 05:14:50;;;;;;;2.25;1.37;;;;;;;10.20;59.75;98343.56;4338520;32;20142;-84
2023/04/01 05:17:16;;;;;;;6.45;1.20;;;;;;;10.38;59.75;98350.41;4350110;32;21369;-85
2023/04/01 05:19:41;;;;;;;2.92;1.23;;;;;;;10.58;59.77;98342.38;4338041;32;20151;-86
2023/04/01 05:22:06;;;;;;;2.58;1.20;;;;;;;10.78;59.78;98341.28;4350298;32;20094;-85
2023/04/01 05:24:32;;;;;;;5.00;1.02;;;;;;;10.95;59.79;98349.00;4325573;32;20466;-86
2023/04/01 05:26:58;;;;;;;3.12;1.17;;;;;;;11.15;59.79;98353.09;4337867;32;20117;-85
2023/04/01 05:29:24;;;;;;;1.33;0.77;;;;;;;11.10;59.79;98347.28;4338173;32;20088;-86
2023/04/01 05:31:49;;;;;;;4.05;0.60;;;;;;;11.21;59.80;98350.13;4351359;32;20111;-87
2023/04/01 05:34:15;;;;;;;2.92;1.15;;;;;;;11.47;59.82;98351.25;4337804;32;20095;-87
2023/04/01 05:36:41;;;;;;;1.50;0.90;;;;;;;11.48;59.82;98349.47;4350211;32;20099;-86
2023/04/01 05:39:07;;;;;;;2.92;0.70;;;;;;;11.79;59.83;98353.75;4326022;32;20103;-86
2023/04/01 05:41:35;;;;;;;3.62;1.10;;;;;;;11.91;59.84;98351.28;4337844;32;20110;-86
2023/04/01 05:44:00;;;;;;;1.20;0.73;;;;;;;12.02;59.84;98355.84;4350409;32;20158;-85
2023/04/01 05:46:25;;;;;;;2.92;0.95;;;;;;;12.17;59.85;98352.31;4350469;32;20154;-85
2023/04/01 05:48:51;;;;;;;1.40;0.70;;;;;;;12.34;59.86;98353.91;4363789;32;20127;-86
2023/04/01 05:51:16;;;;;;;1.17;1.02;;;;;;;12.41;59.86;98349.13;4352856;32;20111;-85
2023/04/01 05:53:45;;;;;;;2.55;0.60;;;;;;;12.46;59.87;98353.13;4337683;32;20519;-84
2023/04/01 05:56:10;;;;;;;2.55;0.80;;;;;;;12.60;59.87;98342.69;4350563;32;20102;-87
2023/04/01 05:58:36;;;;;;;3.05;0.85;;;;;;;12.73;59.89;98352.34;4337843;32;20443;-86
2023/04/01 06:01:07;;;;;;;2.03;1.20;;;;;;;12.73;59.89;98352.34;4337746;32;20167;-86
2023/04/01 06:03:32;;;;;;;1.83;0.70;;;;;;;12.96;59.90;98338.66;4337866;32;20504;-86
2023/04/01 06:05:57;;;;;;;2.17;0.80;;;;;;;13.06;59.90;98350.22;4324823;32;20094;-86
2023/04/01 06:08:23;;;;;;;1.10;0.47;;;;;;;13.30;59.91;98341.75;4337762;32;20155;-87
2023/04/01 06:11:00;;;;;;;0.93;0.60;;;;;;;13.16;59.91;98345.22;4337970;32;20103;-87
2023/04/01 06:13:54;;;;;;;2.03;0.70;;;;;;;13.19;59.91;98343.28;4352545;32;20193;-87
2023/04/01 06:16:34;;;;;;;2.35;1.00;;;;;;;13.41;59.91;98331.41;4365236;32;20122;-86
2023/04/01 06:19:19;;;;;;;4.30;0.93;;;;;;;13.50;59.93;98334.28;4350334;32;20086;-87
2023/04/01 06:21:51;;;;;;;2.45;0.75;;;;;;;13.41;59.91;98340.09;4363924;32;20125;-87
2023/04/01 06:24:16;;;;;;;3.42;0.70;;;;;;;13.50;59.93;98333.44;4349912;32;20212;-86
2023/04/01 06:26:45;;;;;;;4.03;0.80;;;;;;;13.68;59.93;98328.75;4349982;32;20099;-87
2023/04/01 06:29:23;;;;;;;2.72;0.80;;;;;;;13.63;59.93;98336.06;4363073;32;20095;-87
2023/04/01 06:32:09;;;;;;;3.97;0.82;;;;;;;13.80;59.94;98341.00;4350739;32;20111;-87
2023/04/01 06:35:19;;;;;;;1.67;0.77;;;;;;;13.88;59.95;98333.47;4339063;32;20170;-87
2023/04/01 06:38:01;;;;;;;2.47;1.08;;;;;;;13.77;59.94;98335.97;4355885;32;20216;-85
2023/04/01 06:40:41;;;;;;;1.15;0.70;;;;;;;13.99;59.95;98338.81;4345142;32;20154;-85
2023/04/01 06:43:34;;;;;;;5.18;0.90;;;;;;;14.04;59.96;98339.34;4376865;32;20111;-85
2023/04/01 06:46:18;;;;;;;2.17;0.70;;;;;;;14.28;59.96;98341.19;4356704;32;20161;-87
2023/04/01 06:49:07;;;;;;;2.00;0.80;;;;;;;14.32;59.96;98346.13;4364082;32;20142;-88
2023/04/01 06:51:36;;;;;;;3.28;0.80;;;;;;;14.39;59.97;98351.75;4325703;32;20460;-87
2023/04/01 06:54:04;;;;;;;2.58;0.62;;;;;;;14.45;59.97;98348.75;4350109;32;20111;-87
2023/04/01 06:56:30;;;;;;;4.47;1.42;;;;;;;14.41;59.98;98355.94;4338051;32;20154;-87
2023/04/01 06:59:19;;;;;;;3.58;1.00;;;;;;;14.54;59.98;98347.25;4337741;32;20135;-87
2023/04/01 07:01:57;;;;;;;3.40;0.87;;;;;;;14.49;59.98;98344.97;4344710;32;20167;-87
2023/04/01 07:04:26;;;;;;;2.72;1.02;;;;;;;14.48;59.99;98343.31;4339107;32;20107;-87
2023/04/01 07:07:10;;;;;;;1.92;0.80;;;;;;;14.54;59.98;98355.13;4350083;32;20168;-87
2023/04/01 07:09:38;;;;;;;2.60;0.77;;;;;;;14.45;59.97;98335.66;4363785;32;20091;-86
2023/04/01 07:12:20;;;;;;;3.35;1.00;;;;;;;14.51;59.98;98342.25;4337352;32;20107;-86
2023/04/01 07:14:46;;;;;;;0.93;0.57;;;;;;;14.62;59.98;98343.16;4337368;32;20211;-86
2023/04/01 07:17:18;;;;;;;2.62;1.00;;;;;;;14.61;59.98;98343.25;4324542;32;20167;-86
2023/04/01 07:19:53;;;;;;;2.70;0.95;;;;;;;14.68;59.98;98347.97;4349778;32;20063;-87
2023/04/01 07:22:35;;;;;;;2.30;0.68;;;;;;;14.79;60.00;98349.81;4351857;32;20117;-86
2023/04/01 07:25:12;;;;;;;2.42;0.70;;;;;;;15.12;60.02;98343.91;4327673;32;20189;-88
2023/04/01 07:27:38;;;;;;;1.70;0.82;;;;;;;14.96;60.00;98343.38;4350257;32;20260;-87
2023/04/01 07:30:06;;;;;;;3.33;1.20;;;;;;;15.03;60.01;98350.66;4324838;32;20776;-86
2023/04/01 07:32:42;;;;;;;2.28;0.85;;;;;;;14.99;60.00;98338.75;4326290;32;20477;-86
2023/04/01 07:35:27;;;;;;;1.75;0.80;;;;;;;15.08;60.00;98342.47;4337662;32;20384;-85
2023/04/01 07:37:58;;;;;;;3.60;0.88;;;;;;;15.12;60.02;98338.69;4338195;32;20475;-87
2023/04/01 07:40:54;;;;;;;1.85;0.60;;;;;;;15.44;60.03;98338.94;4349852;32;20623;-87
2023/04/01 07:43:32;;;;;;;0.90;0.60;;;;;;;15.51;60.03;98337.53;4349966;32;20117;-86
2023/04/01 07:46:26;;;;;;;1.73;0.50;;;;;;;15.53;60.03;98334.78;4349644;32;20086;-88
2023/04/01 07:49:14;;;;;;;1.27;0.28;;;;;;;15.62;60.04;98334.16;4348673;32;20186;-88
2023/04/01 07:51:52;;;;;;;1.08;0.47;;;;;;;15.32;60.01;98335.44;4328256;32;20091;-88
2023/04/01 07:54:28;;;;;;;3.42;1.05;;;;;;;15.32;60.03;98337.22;4349487;32;20512;-88
2023/04/01 07:57:19;;;;;;;1.85;0.37;;;;;;;15.33;60.02;98344.12;4350060;32;20177;-88
2023/04/01 08:00:11;;;;;;;1.73;0.20;;;;;;;15.13;60.01;98350.00;4349490;32;20445;-87
2023/04/01 08:02:41;;;;;;;3.67;0.62;;;;;;;15.25;60.02;98344.72;4337926;32;20113;-88
2023/04/01 08:05:06;;;;;;;0.68;0.30;;;;;;;15.40;60.03;98349.78;4350170;32;20095;-87
2023/04/01 08:08:10;;;;;;;1.42;0.45;;;;;;;15.33;60.02;98352.84;4362715;32;20158;-88
2023/04/01 08:10:41;;;;;;;1.23;0.30;;;;;;;15.21;60.01;98353.75;4324600;32;20508;-87
2023/04/01 08:13:09;;;;;;;5.12;0.57;;;;;;;15.21;60.02;98353.75;4349537;32;20095;-87
2023/04/01 08:16:17;;;;;;;1.23;0.40;;;;;;;15.09;60.01;98351.16;4362869;32;20087;-87
2023/04/01 08:19:17;;;;;;;0.52;0.30;;;;;;;15.39;60.02;98351.56;4338855;32;20153;-87
2023/04/01 08:21:43;;;;;;;1.00;0.35;;;;;;;15.60;60.04;98355.22;4349478;32;20468;-87
2023/04/01 08:24:29;;;;;;;1.25;0.40;;;;;;;15.55;60.04;98352.09;4337756;32;20117;-86
2023/04/01 08:26:56;;;;;;;3.33;0.55;;;;;;;15.69;60.04;98358.97;4348994;32;20099;-87
2023/04/01 08:29:23;;;;;;;0.55;0.32;;;;;;;15.81;60.05;98363.28;4338358;32;20112;-88
2023/04/01 08:32:14;;;;;;;0.50;0.20;;;;;;;15.76;60.05;98354.94;4351346;32;20099;-89
2023/04/01 08:34:41;;;;;;;0.77;0.20;;;;;;;15.63;60.05;98364.69;4352370;32;20083;-87
2023/04/01 08:37:24;;;;;;;1.05;0.22;;;;;;;15.58;60.04;98346.63;4339526;32;20099;-86
2023/04/01 08:39:58;;;;;;;6.50;0.55;;;;;;;15.47;60.04;98357.06;4339247;32;20515;-87
2023/04/01 08:42:58;;;;;;;1.50;0.85;;;;;;;15.47;60.03;98351.00;4327052;32;20078;-87
2023/04/01 08:45:44;;;;;;;1.10;0.47;;;;;;;15.53;60.03;98358.41;4352086;32;20122;-86
2023/04/01 08:49:07;;;;;;;3.87;0.98;;;;;;;15.52;60.03;98352.31;4350830;32;20082;-87
2023/04/01 08:51:52;;;;;;;3.00;0.60;;;;;;;15.49;60.04;98349.94;4303592;33;20136;-88
2023/04/01 08:54:20;;;;;;;2.10;0.62;;;;;;;15.52;60.03;98362.81;4291211;33;20189;-86
2023/04/01 08:57:08;;;;;;;2.85;0.40;;;;;;;15.60;60.04;98359.63;4333137;32;20098;-87
2023/04/01 08:59:57;;;;;;;2.35;0.50;;;;;;;15.56;60.04;98358.16;4338259;32;20095;-86
2023/04/01 09:02:41;;;;;;;2.42;0.62;;;;;;;15.59;60.04;98358.81;4350664;32;20134;-87
2023/04/01 09:05:32;;;;;;;3.45;0.88;;;;;;;15.55;60.04;98348.63;4365714;32;20256;-87
2023/04/01 09:08:42;;;;;;;1.98;0.60;;;;;;;15.81;60.05;98351.94;4352997;32;20089;-87
2023/04/01 09:11:10;;;;;;;2.72;0.65;;;;;;;15.98;60.06;98348.06;4351564;32;20079;-86
2023/04/01 09:14:11;;;;;;;1.50;0.47;;;;;;;16.06;60.07;98350.91;4362504;32;20080;-85
2023/04/01 09:17:01;;;;;;;4.93;1.50;;;;;;;16.21;60.07;98345.34;4305362;33;20139;-87
2023/04/01 09:19:48;;;;;;;3.17;1.00;;;;;;;16.06;60.06;98349.13;4362492;32;20103;-86
2023/04/01 09:22:22;;;;;;;2.65;0.70;;;;;;;16.23;60.08;98353.94;4364341;32;20436;-85
2023/04/01 09:25:09;;;;;;;2.70;0.62;;;;;;;16.38;60.08;98351.06;4350739;32;20115;-85
2023/04/01 09:27:52;;;;;;;1.67;0.50;;;;;;;16.46;60.10;98349.50;4364408;32;20476;-85
2023/04/01 09:30:39;;;;;;;2.45;0.40;;;;;;;16.37;60.08;98338.91;4350753;32;20091;-85
2023/04/01 09:33:35;;;;;;;1.45;0.50;;;;;;;16.41;60.09;98348.22;4362833;32;20520;-86
2023/04/01 09:36:19;;;;;;;4.20;0.70;;;;;;;16.45;60.09;98339.13;4350798;32;20118;-86
2023/04/01 09:39:27;;;;;;;3.33;0.60;;;;;;;16.31;60.08;98332.31;4364226;32;20130;-85
2023/04/01 09:42:11;;;;;;;2.90;0.52;;;;;;;16.10;60.07;98337.47;4352292;32;20098;-85
2023/04/01 09:44:45;;;;;;;1.87;0.68;;;;;;;15.69;60.04;98348.47;4350814;32;20110;-86
2023/04/01 09:47:30;;;;;;;2.10;0.77;;;;;;;15.90;60.05;98356.53;4345959;32;20130;-84
2023/04/01 09:50:16;;;;;;;2.58;0.65;;;;;;;15.46;60.03;98351.94;4356300;32;20111;-85
2023/04/01 09:52:50;;;;;;;4.20;0.85;;;;;;;15.60;60.04;98342.13;4363972;32;20134;-86
2023/04/01 09:55:45;;;;;;;3.67;0.50;;;;;;;15.45;60.03;98352.91;4325732;32;20187;-86
2023/04/01 09:58:29;;;;;;;2.62;0.65;;;;;;;15.72;60.05;98360.53;4338238;32;20108;-86
2023/04/01 10:01:25;;;;;;;3.28;0.43;;;;;;;15.67;60.05;98360.03;4364326;32;20099;-86
2023/04/01 10:04:12;;;;;;;1.42;0.80;;;;;;;15.76;60.05;98354.09;4350451;32;20766;-86
2023/04/01 10:06:53;;;;;;;4.47;0.55;;;;;;;15.39;60.03;98362.06;4352218;32;20122;-86
2023/04/01 10:09:38;;;;;;;3.22;0.60;;;;;;;15.35;60.03;98364.03;4355103;32;20210;-86
2023/04/01 10:12:16;;;;;;;2.22;0.50;;;;;;;15.24;60.02;98368.41;4365106;32;20103;-86
2023/04/01 10:14:44;;;;;;;1.17;0.40;;;;;;;15.29;60.02;98361.03;4337933;32;20164;-86
2023/04/01 10:17:35;;;;;;;1.02;0.52;;;;;;;15.29;60.02;98375.00;4350214;32;20109;-86
2023/04/01 10:20:18;;;;;;;2.10;0.82;;;;;;;15.50;60.04;98362.09;4363981;32;20422;-86
2023/04/01 10:23:06;;;;;;;1.45;0.50;;;;;;;15.54;60.03;98368.78;4350589;32;20133;-86
2023/04/01 10:26:10;;;;;;;1.23;0.60;;;;;;;15.53;60.03;98350.53;4351479;32;20134;-86
2023/04/01 10:28:47;;;;;;;4.78;0.50;;;;;;;15.67;60.05;98360.03;4363932;32;20091;-87
2023/04/01 10:31:23;;;;;;;3.42;0.70;;;;;;;15.69;60.04;98364.22;4351146;32;20099;-86
2023/04/01 10:34:19;;;;;;;3.37;1.00;;;;;;;15.97;60.06;98360.34;4350379;32;20178;-85
2023/04/01 10:36:56;;;;;;;2.17;0.50;;;;;;;16.24;60.08;98355.59;4350306;32;20113;-86
2023/04/01 10:39:43;;;;;;;5.68;1.42;;;;;;;15.94;60.07;98371.06;4338302;32;20087;-86
2023/04/01 10:42:21;;;;;;;2.78;0.60;;;;;;;16.20;60.08;98361.22;4352803;32;20552;-86
2023/04/01 10:44:46;;;;;;;1.30;0.40;;;;;;;16.60;60.09;98352.88;4363661;32;20133;-86
2023/04/01 10:47:40;;;;;;;4.07;0.70;;;;;;;16.67;60.10;98352.28;4349837;32;20095;-87
2023/04/01 10:50:44;;;;;;;3.15;1.30;;;;;;;16.81;60.11;98352.03;4363150;32;20452;-86
2023/04/01 10:53:15;;;;;;;0.80;0.32;;;;;;;16.96;60.12;98344.69;4352392;32;20111;-86
2023/04/01 10:56:17;;;;;;;1.48;0.43;;;;;;;16.94;60.11;98343.97;4350476;32;20162;-86
2023/04/01 10:59:20;;;;;;;3.72;0.60;;;;;;;17.08;60.13;98348.97;4364272;32;20095;-86
2023/04/01 11:02:07;;;;;;;2.03;0.82;;;;;;;16.91;60.11;98338.97;4350018;32;20103;-86
2023/04/01 11:04:51;;;;;;;2.55;1.00;;;;;;;17.02;60.12;98341.56;4363646;32;20145;-86
2023/04/01 11:07:38;;;;;;;5.70;1.70;;;;;;;17.06;60.12;98334.28;4350082;32;20115;-86
2023/04/01 11:10:21;;;;;;;3.53;0.73;;;;;;;16.85;60.12;98335.06;4349879;32;20091;-86
2023/04/01 11:13:10;;;;;;;1.35;0.37;;;;;;;16.83;60.11;98346.66;4349672;32;20099;-86
2023/04/01 11:15:56;;;;;;;3.17;0.43;;;;;;;17.10;60.13;98335.72;4337717;32;20198;-86
2023/04/01 11:18:44;;;;;;;2.03;0.60;;;;;;;16.94;60.12;98336.09;4350323;32;20094;-86
2023/04/01 11:21:29;;;;;;;1.50;0.40;;;;;;;17.04;60.12;98338.84;4349667;32;20121;-85
2023/04/01 11:24:02;;;;;;;2.47;0.43;;;;;;;17.25;60.13;98342.31;4338512;32;20099;-86
2023/04/01 11:27:06;;;;;;;2.70;0.70;;;;;;;17.21;60.13;98348.81;4350227;32;20094;-86
2023/04/01 11:30:09;;;;;;;1.58;0.40;;;;;;;17.32;60.14;98340.88;4349940;32;20169;-87
2023/04/01 11:32:43;;;;;;;3.75;1.30;;;;;;;17.38;60.13;98336.91;4363411;32;20492;-86
2023/04/01 11:35:49;;;;;;;1.20;0.40;;;;;;;17.71;60.16;98328.88;4363585;32;20174;-86
2023/04/01 11:38:33;;;;;;;1.92;0.50;;;;;;;17.97;60.17;98334.56;4349729;32;20158;-86
2023/04/01 11:41:17;;;;;;;4.12;0.90;;;;;;;17.86;60.17;98333.81;4349930;32;20146;-86
2023/04/01 11:44:03;;;;;;;3.25;1.12;;;;;;;17.86;60.17;98337.28;4350109;32;20117;-86
2023/04/01 11:46:43;;;;;;;2.22;0.60;;;;;;;17.81;60.17;98336.84;4351571;32;20111;-87
2023/04/01 11:49:43;;;;;;;7.50;0.80;;;;;;;17.78;60.17;98348.47;4337561;32;20111;-87
2023/04/01 11:52:46;;;;;;;2.67;0.43;;;;;;;17.51;60.14;98348.09;4363266;32;20168;-86
2023/04/01 11:55:43;;;;;;;1.50;0.47;;;;;;;17.36;60.14;98344.09;4302617;33;20442;-86
2023/04/01 11:58:21;;;;;;;2.78;1.33;;;;;;;17.53;60.14;98343.56;4339125;32;20087;-86
2023/04/01 12:01:25;;;;;;;3.70;0.68;;;;;;;17.64;60.16;98340.00;4349988;32;20464;-86
2023/04/01 12:04:21;;;;;;;5.62;1.05;;;;;;;17.59;60.15;98345.66;4303520;33;20112;-86
2023/04/01 12:07:05;;;;;;;2.80;0.50;;;;;;;17.47;60.15;98352.75;4365740;32;20126;-86
2023/04/01 12:09:50;;;;;;;2.28;0.57;;;;;;;17.46;60.15;98356.34;4351321;32;20157;-86
2023/04/01 12:12:40;;;;;;;2.58;0.80;;;;;;;17.22;60.13;98350.47;4350986;32;20103;-87